Terminal Aerodrome Forecast
Issued by NWS

Home | Current Version | Previous Version | Text Only | Print | Product List | Glossary On
Versions: 1 2 3 4 5 6 7 8 9 10 11 12 13 14 15
657
FTUS43 KTOP 290520
TAFFOE
TAF
KFOE 290520Z 2906/3006 19013KT P6SM SCT250 WS020/20050KT
     FM291200 19013KT P6SM VCTS BKN080CB WS020/21050KT
     FM291300 18011KT P6SM VCTS BKN080CB
     FM291500 19012G20KT P6SM BKN150
     FM292300 18011KT P6SM VCTS BKN060CB=

USA.gov is the U.S. government's official web portal to all federal, state and local government web resources and services.